sensor_id;sensor_type;location;lat;lon;timestamp;P1;durP1;ratioP1;P2;durP2;ratioP2
6663;SDS011;58749;48.022;10.922;2022-08-23T00:01:44;8.77;;;2.67;;
6663;SDS011;58749;48.022;10.922;2022-08-23T00:04:17;2.85;;;2.03;;
6663;SDS011;58749;48.022;10.922;2022-08-23T00:06:55;11.50;;;2.75;;
6663;SDS011;58749;48.022;10.922;2022-08-23T00:09:25;5.65;;;2.95;;
6663;SDS011;58749;48.022;10.922;2022-08-23T00:12:02;6.15;;;2.30;;
6663;SDS011;58749;48.022;10.922;2022-08-23T00:14:37;3.22;;;2.03;;
6663;SDS011;58749;48.022;10.922;2022-08-23T00:17:10;3.17;;;2.10;;
6663;SDS011;58749;48.022;10.922;2022-08-23T00:19:59;6.63;;;2.47;;
6663;SDS011;58749;48.022;10.922;2022-08-23T00:22:28;15.57;;;3.30;;
6663;SDS011;58749;48.022;10.922;2022-08-23T00:24:56;13.75;;;2.50;;
6663;SDS011;58749;48.022;10.922;2022-08-23T00:27:24;3.95;;;2.33;;
6663;SDS011;58749;48.022;10.922;2022-08-23T00:29:55;4.57;;;2.15;;
6663;SDS011;58749;48.022;10.922;2022-08-23T00:32:25;5.25;;;2.20;;
6663;SDS011;58749;48.022;10.922;2022-08-23T00:35:00;6.07;;;2.85;;
6663;SDS011;58749;48.022;10.922;2022-08-23T00:37:29;6.50;;;2.67;;
6663;SDS011;58749;48.022;10.922;2022-08-23T00:39:59;4.22;;;2.40;;
6663;SDS011;58749;48.022;10.922;2022-08-23T00:42:29;15.43;;;3.33;;
6663;SDS011;58749;48.022;10.922;2022-08-23T00:45:22;4.13;;;2.65;;
6663;SDS011;58749;48.022;10.922;2022-08-23T00:48:20;3.83;;;3.10;;
6663;SDS011;58749;48.022;10.922;2022-08-23T00:50:50;4.00;;;2.70;;
6663;SDS011;58749;48.022;10.922;2022-08-23T00:53:27;4.63;;;3.05;;
6663;SDS011;58749;48.022;10.922;2022-08-23T00:56:02;5.67;;;2.20;;
6663;SDS011;58749;48.022;10.922;2022-08-23T00:58:34;2.92;;;2.50;;
6663;SDS011;58749;48.022;10.922;2022-08-23T01:01:04;9.65;;;2.83;;
6663;SDS011;58749;48.022;10.922;2022-08-23T01:03:34;4.90;;;2.58;;
6663;SDS011;58749;48.022;10.922;2022-08-23T01:06:08;4.30;;;2.13;;
6663;SDS011;58749;48.022;10.922;2022-08-23T01:08:40;4.95;;;2.10;;
6663;SDS011;58749;48.022;10.922;2022-08-23T01:11:17;4.07;;;2.17;;
6663;SDS011;58749;48.022;10.922;2022-08-23T01:13:51;5.35;;;2.20;;
6663;SDS011;58749;48.022;10.922;2022-08-23T01:16:25;5.55;;;2.25;;
6663;SDS011;58749;48.022;10.922;2022-08-23T01:18:59;4.20;;;2.20;;
6663;SDS011;58749;48.022;10.922;2022-08-23T01:21:30;6.95;;;2.42;;
6663;SDS011;58749;48.022;10.922;2022-08-23T01:24:07;6.28;;;2.60;;
6663;SDS011;58749;48.022;10.922;2022-08-23T01:26:56;5.15;;;2.50;;
6663;SDS011;58749;48.022;10.922;2022-08-23T01:29:46;9.18;;;2.42;;
6663;SDS011;58749;48.022;10.922;2022-08-23T01:32:36;6.10;;;2.25;;
6663;SDS011;58749;48.022;10.922;2022-08-23T01:35:31;6.47;;;2.50;;
6663;SDS011;58749;48.022;10.922;2022-08-23T01:38:04;4.40;;;2.30;;
6663;SDS011;58749;48.022;10.922;2022-08-23T01:40:35;8.13;;;2.60;;
6663;SDS011;58749;48.022;10.922;2022-08-23T01:43:05;6.68;;;2.40;;
6663;SDS011;58749;48.022;10.922;2022-08-23T01:45:34;3.65;;;2.42;;
6663;SDS011;58749;48.022;10.922;2022-08-23T01:48:05;3.45;;;2.58;;
6663;SDS011;58749;48.022;10.922;2022-08-23T01:50:33;6.97;;;2.67;;
6663;SDS011;58749;48.022;10.922;2022-08-23T01:53:03;13.07;;;2.42;;
6663;SDS011;58749;48.022;10.922;2022-08-23T01:55:31;7.65;;;2.38;;
6663;SDS011;58749;48.022;10.922;2022-08-23T01:58:02;6.57;;;2.60;;
6663;SDS011;58749;48.022;10.922;2022-08-23T02:00:33;4.07;;;2.33;;
6663;SDS011;58749;48.022;10.922;2022-08-23T02:03:04;6.15;;;2.55;;
6663;SDS011;58749;48.022;10.922;2022-08-23T02:05:34;2.78;;;2.00;;
6663;SDS011;58749;48.022;10.922;2022-08-23T02:08:03;10.57;;;2.78;;
6663;SDS011;58749;48.022;10.922;2022-08-23T02:10:46;3.35;;;2.65;;
6663;SDS011;58749;48.022;10.922;2022-08-23T02:13:16;6.13;;;2.40;;
6663;SDS011;58749;48.022;10.922;2022-08-23T02:15:44;5.22;;;2.10;;
6663;SDS011;58749;48.022;10.922;2022-08-23T02:18:16;8.82;;;2.90;;
6663;SDS011;58749;48.022;10.922;2022-08-23T02:20:46;3.33;;;2.72;;
6663;SDS011;58749;48.022;10.922;2022-08-23T02:23:16;12.20;;;3.25;;
6663;SDS011;58749;48.022;10.922;2022-08-23T02:25:45;4.10;;;2.80;;
6663;SDS011;58749;48.022;10.922;2022-08-23T02:28:13;10.45;;;3.05;;
6663;SDS011;58749;48.022;10.922;2022-08-23T02:30:44;7.50;;;2.83;;
6663;SDS011;58749;48.022;10.922;2022-08-23T02:33:13;13.57;;;3.30;;
6663;SDS011;58749;48.022;10.922;2022-08-23T02:35:42;14.73;;;3.47;;
6663;SDS011;58749;48.022;10.922;2022-08-23T02:38:11;8.10;;;3.20;;
6663;SDS011;58749;48.022;10.922;2022-08-23T02:40:40;11.52;;;2.85;;
6663;SDS011;58749;48.022;10.922;2022-08-23T02:43:08;7.80;;;3.05;;
6663;SDS011;58749;48.022;10.922;2022-08-23T02:45:37;15.23;;;2.67;;
6663;SDS011;58749;48.022;10.922;2022-08-23T02:48:07;4.88;;;2.78;;
6663;SDS011;58749;48.022;10.922;2022-08-23T02:50:36;7.47;;;2.78;;
6663;SDS011;58749;48.022;10.922;2022-08-23T02:53:04;2.92;;;2.30;;
6663;SDS011;58749;48.022;10.922;2022-08-23T02:55:32;4.20;;;2.70;;
6663;SDS011;58749;48.022;10.922;2022-08-23T02:58:00;6.07;;;2.60;;
6663;SDS011;58749;48.022;10.922;2022-08-23T03:00:30;8.20;;;3.08;;
6663;SDS011;58749;48.022;10.922;2022-08-23T03:02:58;7.40;;;3.08;;
6663;SDS011;58749;48.022;10.922;2022-08-23T03:05:28;3.97;;;2.75;;
6663;SDS011;58749;48.022;10.922;2022-08-23T03:07:56;6.13;;;2.92;;
6663;SDS011;58749;48.022;10.922;2022-08-23T03:10:25;5.97;;;3.47;;
6663;SDS011;58749;48.022;10.922;2022-08-23T03:12:53;4.15;;;2.88;;
6663;SDS011;58749;48.022;10.922;2022-08-23T03:15:21;6.63;;;4.18;;
6663;SDS011;58749;48.022;10.922;2022-08-23T03:17:50;10.50;;;3.88;;
6663;SDS011;58749;48.022;10.922;2022-08-23T03:20:18;7.38;;;3.67;;
6663;SDS011;58749;48.022;10.922;2022-08-23T03:22:48;4.05;;;3.10;;
6663;SDS011;58749;48.022;10.922;2022-08-23T03:25:20;4.47;;;3.20;;
6663;SDS011;58749;48.022;10.922;2022-08-23T03:27:49;5.18;;;3.03;;
6663;SDS011;58749;48.022;10.922;2022-08-23T03:30:17;5.45;;;3.75;;
6663;SDS011;58749;48.022;10.922;2022-08-23T03:32:45;4.40;;;3.20;;
6663;SDS011;58749;48.022;10.922;2022-08-23T03:35:14;5.78;;;3.42;;
6663;SDS011;58749;48.022;10.922;2022-08-23T03:37:43;4.45;;;3.38;;
6663;SDS011;58749;48.022;10.922;2022-08-23T03:40:12;6.47;;;3.50;;
6663;SDS011;58749;48.022;10.922;2022-08-23T03:42:40;7.18;;;3.72;;
6663;SDS011;58749;48.022;10.922;2022-08-23T03:45:09;30.35;;;3.97;;
6663;SDS011;58749;48.022;10.922;2022-08-23T03:47:37;4.70;;;3.60;;
6663;SDS011;58749;48.022;10.922;2022-08-23T03:50:06;11.40;;;3.50;;
6663;SDS011;58749;48.022;10.922;2022-08-23T03:52:34;11.60;;;3.40;;
6663;SDS011;58749;48.022;10.922;2022-08-23T03:55:03;7.97;;;2.60;;
6663;SDS011;58749;48.022;10.922;2022-08-23T03:57:33;9.82;;;2.78;;
6663;SDS011;58749;48.022;10.922;2022-08-23T04:00:02;3.78;;;2.50;;
6663;SDS011;58749;48.022;10.922;2022-08-23T04:02:31;7.18;;;3.20;;
6663;SDS011;58749;48.022;10.922;2022-08-23T04:05:20;4.93;;;3.55;;
6663;SDS011;58749;48.022;10.922;2022-08-23T04:07:48;5.07;;;2.58;;
6663;SDS011;58749;48.022;10.922;2022-08-23T04:10:16;4.05;;;2.42;;
6663;SDS011;58749;48.022;10.922;2022-08-23T04:12:46;3.65;;;2.50;;
6663;SDS011;58749;48.022;10.922;2022-08-23T04:15:14;5.95;;;2.63;;
6663;SDS011;58749;48.022;10.922;2022-08-23T04:17:43;5.45;;;2.80;;
6663;SDS011;58749;48.022;10.922;2022-08-23T04:20:12;4.32;;;2.78;;
6663;SDS011;58749;48.022;10.922;2022-08-23T04:22:40;4.15;;;2.53;;
6663;SDS011;58749;48.022;10.922;2022-08-23T04:25:11;8.05;;;2.97;;
6663;SDS011;58749;48.022;10.922;2022-08-23T04:28:01;5.78;;;2.83;;
6663;SDS011;58749;48.022;10.922;2022-08-23T04:30:29;7.30;;;2.70;;
6663;SDS011;58749;48.022;10.922;2022-08-23T04:32:58;5.43;;;2.53;;
6663;SDS011;58749;48.022;10.922;2022-08-23T04:35:27;7.28;;;3.10;;
6663;SDS011;58749;48.022;10.922;2022-08-23T04:37:55;8.07;;;2.83;;
6663;SDS011;58749;48.022;10.922;2022-08-23T04:40:23;4.57;;;2.92;;
6663;SDS011;58749;48.022;10.922;2022-08-23T04:43:11;7.15;;;3.40;;
6663;SDS011;58749;48.022;10.922;2022-08-23T04:45:39;4.93;;;2.58;;
6663;SDS011;58749;48.022;10.922;2022-08-23T04:48:07;9.13;;;3.10;;
6663;SDS011;58749;48.022;10.922;2022-08-23T04:50:37;4.13;;;3.15;;
6663;SDS011;58749;48.022;10.922;2022-08-23T04:53:06;5.60;;;3.17;;
6663;SDS011;58749;48.022;10.922;2022-08-23T04:55:34;5.18;;;3.33;;
6663;SDS011;58749;48.022;10.922;2022-08-23T04:58:03;6.32;;;3.13;;
6663;SDS011;58749;48.022;10.922;2022-08-23T05:00:33;9.63;;;3.00;;
6663;SDS011;58749;48.022;10.922;2022-08-23T05:03:01;3.95;;;2.80;;
6663;SDS011;58749;48.022;10.922;2022-08-23T05:05:29;3.97;;;2.70;;
6663;SDS011;58749;48.022;10.922;2022-08-23T05:07:58;3.83;;;2.85;;
6663;SDS011;58749;48.022;10.922;2022-08-23T05:10:27;5.43;;;3.00;;
6663;SDS011;58749;48.022;10.922;2022-08-23T05:12:55;7.95;;;2.95;;
6663;SDS011;58749;48.022;10.922;2022-08-23T05:15:23;7.65;;;3.17;;
6663;SDS011;58749;48.022;10.922;2022-08-23T05:17:53;12.35;;;3.20;;
6663;SDS011;58749;48.022;10.922;2022-08-23T05:20:21;7.90;;;2.95;;
6663;SDS011;58749;48.022;10.922;2022-08-23T05:22:49;11.57;;;3.55;;
6663;SDS011;58749;48.022;10.922;2022-08-23T05:25:17;9.68;;;3.33;;
6663;SDS011;58749;48.022;10.922;2022-08-23T05:27:45;4.82;;;2.85;;
6663;SDS011;58749;48.022;10.922;2022-08-23T05:30:13;3.97;;;3.20;;
6663;SDS011;58749;48.022;10.922;2022-08-23T05:32:41;4.63;;;3.10;;
6663;SDS011;58749;48.022;10.922;2022-08-23T05:35:11;5.75;;;2.70;;
6663;SDS011;58749;48.022;10.922;2022-08-23T05:37:40;6.18;;;3.45;;
6663;SDS011;58749;48.022;10.922;2022-08-23T05:40:08;6.15;;;3.25;;
6663;SDS011;58749;48.022;10.922;2022-08-23T05:42:37;4.93;;;3.50;;
6663;SDS011;58749;48.022;10.922;2022-08-23T05:45:05;5.18;;;3.65;;
6663;SDS011;58749;48.022;10.922;2022-08-23T05:47:34;3.83;;;3.17;;
6663;SDS011;58749;48.022;10.922;2022-08-23T05:50:03;7.15;;;3.40;;
6663;SDS011;58749;48.022;10.922;2022-08-23T05:52:32;9.23;;;3.88;;
6663;SDS011;58749;48.022;10.922;2022-08-23T05:55:01;6.45;;;3.78;;
6663;SDS011;58749;48.022;10.922;2022-08-23T05:57:29;10.10;;;3.70;;
6663;SDS011;58749;48.022;10.922;2022-08-23T05:59:57;16.05;;;3.78;;
6663;SDS011;58749;48.022;10.922;2022-08-23T06:02:26;5.20;;;2.85;;
6663;SDS011;58749;48.022;10.922;2022-08-23T06:04:54;4.55;;;2.85;;
6663;SDS011;58749;48.022;10.922;2022-08-23T06:07:22;7.68;;;3.00;;
6663;SDS011;58749;48.022;10.922;2022-08-23T06:09:52;12.55;;;3.47;;
6663;SDS011;58749;48.022;10.922;2022-08-23T06:12:20;3.83;;;3.03;;
6663;SDS011;58749;48.022;10.922;2022-08-23T06:14:49;9.00;;;3.00;;
6663;SDS011;58749;48.022;10.922;2022-08-23T06:17:18;4.15;;;3.15;;
6663;SDS011;58749;48.022;10.922;2022-08-23T06:19:46;7.13;;;3.22;;
6663;SDS011;58749;48.022;10.922;2022-08-23T06:22:14;7.20;;;3.05;;
6663;SDS011;58749;48.022;10.922;2022-08-23T06:24:42;5.43;;;3.50;;
6663;SDS011;58749;48.022;10.922;2022-08-23T06:27:12;4.05;;;3.03;;
6663;SDS011;58749;48.022;10.922;2022-08-23T06:29:40;4.95;;;3.45;;
6663;SDS011;58749;48.022;10.922;2022-08-23T06:32:09;4.13;;;3.13;;
6663;SDS011;58749;48.022;10.922;2022-08-23T06:34:37;5.45;;;3.03;;
6663;SDS011;58749;48.022;10.922;2022-08-23T06:37:06;17.50;;;3.50;;
6663;SDS011;58749;48.022;10.922;2022-08-23T06:39:36;5.95;;;3.03;;
6663;SDS011;58749;48.022;10.922;2022-08-23T06:42:06;5.35;;;3.20;;
6663;SDS011;58749;48.022;10.922;2022-08-23T06:44:58;5.60;;;2.92;;
6663;SDS011;58749;48.022;10.922;2022-08-23T06:47:26;4.45;;;3.03;;
6663;SDS011;58749;48.022;10.922;2022-08-23T06:49:54;9.25;;;3.10;;
6663;SDS011;58749;48.022;10.922;2022-08-23T06:52:24;4.10;;;3.20;;
6663;SDS011;58749;48.022;10.922;2022-08-23T06:54:53;13.43;;;4.20;;
6663;SDS011;58749;48.022;10.922;2022-08-23T06:57:23;5.28;;;3.10;;
6663;SDS011;58749;48.022;10.922;2022-08-23T06:59:51;6.20;;;3.47;;
6663;SDS011;58749;48.022;10.922;2022-08-23T07:02:21;8.68;;;2.97;;
6663;SDS011;58749;48.022;10.922;2022-08-23T07:04:49;6.28;;;2.97;;
6663;SDS011;58749;48.022;10.922;2022-08-23T07:07:19;4.70;;;2.53;;
6663;SDS011;58749;48.022;10.922;2022-08-23T07:09:48;4.40;;;3.08;;
6663;SDS011;58749;48.022;10.922;2022-08-23T07:12:16;4.93;;;3.22;;
6663;SDS011;58749;48.022;10.922;2022-08-23T07:14:45;4.68;;;2.95;;
6663;SDS011;58749;48.022;10.922;2022-08-23T07:17:13;4.00;;;2.95;;
6663;SDS011;58749;48.022;10.922;2022-08-23T07:19:43;4.72;;;3.13;;
6663;SDS011;58749;48.022;10.922;2022-08-23T07:22:12;3.92;;;3.50;;
6663;SDS011;58749;48.022;10.922;2022-08-23T07:24:41;5.38;;;3.75;;
6663;SDS011;58749;48.022;10.922;2022-08-23T07:27:09;6.68;;;2.53;;
6663;SDS011;58749;48.022;10.922;2022-08-23T07:29:38;6.45;;;2.58;;
6663;SDS011;58749;48.022;10.922;2022-08-23T07:32:07;3.42;;;2.60;;
6663;SDS011;58749;48.022;10.922;2022-08-23T07:34:35;6.50;;;2.80;;
6663;SDS011;58749;48.022;10.922;2022-08-23T07:37:05;6.05;;;2.97;;
6663;SDS011;58749;48.022;10.922;2022-08-23T07:39:40;7.75;;;3.13;;
6663;SDS011;58749;48.022;10.922;2022-08-23T07:42:09;7.70;;;3.35;;
6663;SDS011;58749;48.022;10.922;2022-08-23T07:44:49;9.07;;;3.95;;
6663;SDS011;58749;48.022;10.922;2022-08-23T07:47:18;4.63;;;2.70;;
6663;SDS011;58749;48.022;10.922;2022-08-23T07:49:47;4.90;;;2.60;;
6663;SDS011;58749;48.022;10.922;2022-08-23T07:52:16;4.55;;;3.25;;
6663;SDS011;58749;48.022;10.922;2022-08-23T07:54:44;5.82;;;3.08;;
6663;SDS011;58749;48.022;10.922;2022-08-23T07:57:15;5.85;;;2.40;;
6663;SDS011;58749;48.022;10.922;2022-08-23T07:59:43;5.97;;;3.00;;
6663;SDS011;58749;48.022;10.922;2022-08-23T08:02:11;5.47;;;2.95;;
6663;SDS011;58749;48.022;10.922;2022-08-23T08:04:39;5.57;;;3.05;;
6663;SDS011;58749;48.022;10.922;2022-08-23T08:07:07;4.47;;;2.80;;
6663;SDS011;58749;48.022;10.922;2022-08-23T08:09:47;4.43;;;2.47;;
6663;SDS011;58749;48.022;10.922;2022-08-23T08:12:15;4.40;;;3.20;;
6663;SDS011;58749;48.022;10.922;2022-08-23T08:14:44;6.22;;;2.67;;
6663;SDS011;58749;48.022;10.922;2022-08-23T08:17:13;4.22;;;2.45;;
6663;SDS011;58749;48.022;10.922;2022-08-23T08:19:43;5.18;;;2.63;;
6663;SDS011;58749;48.022;10.922;2022-08-23T08:22:12;3.28;;;2.45;;
6663;SDS011;58749;48.022;10.922;2022-08-23T08:24:40;5.95;;;2.92;;
6663;SDS011;58749;48.022;10.922;2022-08-23T08:27:09;5.60;;;2.00;;
6663;SDS011;58749;48.022;10.922;2022-08-23T08:29:37;6.18;;;2.90;;
6663;SDS011;58749;48.022;10.922;2022-08-23T08:32:07;5.30;;;2.55;;
6663;SDS011;58749;48.022;10.922;2022-08-23T08:34:39;3.65;;;2.53;;
6663;SDS011;58749;48.022;10.922;2022-08-23T08:37:07;5.55;;;2.47;;
6663;SDS011;58749;48.022;10.922;2022-08-23T08:39:36;4.97;;;2.38;;
6663;SDS011;58749;48.022;10.922;2022-08-23T08:42:20;3.65;;;2.45;;
6663;SDS011;58749;48.022;10.922;2022-08-23T08:45:02;2.45;;;1.90;;
6663;SDS011;58749;48.022;10.922;2022-08-23T08:47:34;4.88;;;1.63;;
6663;SDS011;58749;48.022;10.922;2022-08-23T08:50:08;3.80;;;1.83;;
6663;SDS011;58749;48.022;10.922;2022-08-23T08:52:42;8.30;;;2.20;;
6663;SDS011;58749;48.022;10.922;2022-08-23T08:55:16;2.35;;;1.60;;
6663;SDS011;58749;48.022;10.922;2022-08-23T08:57:48;5.82;;;2.10;;
6663;SDS011;58749;48.022;10.922;2022-08-23T09:00:22;4.60;;;1.85;;
6663;SDS011;58749;48.022;10.922;2022-08-23T09:02:52;12.23;;;2.35;;
6663;SDS011;58749;48.022;10.922;2022-08-23T09:05:21;5.13;;;2.05;;
6663;SDS011;58749;48.022;10.922;2022-08-23T09:07:56;1.88;;;1.60;;
6663;SDS011;58749;48.022;10.922;2022-08-23T09:10:44;4.05;;;1.90;;
6663;SDS011;58749;48.022;10.922;2022-08-23T09:13:33;2.83;;;1.55;;
6663;SDS011;58749;48.022;10.922;2022-08-23T09:16:15;2.72;;;1.67;;
6663;SDS011;58749;48.022;10.922;2022-08-23T09:18:51;2.55;;;1.65;;
6663;SDS011;58749;48.022;10.922;2022-08-23T09:21:20;4.15;;;1.67;;
6663;SDS011;58749;48.022;10.922;2022-08-23T09:23:51;14.40;;;2.55;;
6663;SDS011;58749;48.022;10.922;2022-08-23T09:26:27;1.88;;;1.50;;
6663;SDS011;58749;48.022;10.922;2022-08-23T09:28:59;3.58;;;1.73;;
6663;SDS011;58749;48.022;10.922;2022-08-23T09:31:37;3.17;;;1.73;;
6663;SDS011;58749;48.022;10.922;2022-08-23T09:34:07;2.72;;;1.50;;
6663;SDS011;58749;48.022;10.922;2022-08-23T09:36:37;4.57;;;1.50;;
6663;SDS011;58749;48.022;10.922;2022-08-23T09:39:07;4.35;;;1.85;;
6663;SDS011;58749;48.022;10.922;2022-08-23T09:41:56;4.90;;;1.50;;
6663;SDS011;58749;48.022;10.922;2022-08-23T09:44:34;6.40;;;1.40;;
6663;SDS011;58749;48.022;10.922;2022-08-23T09:47:05;6.95;;;2.05;;
6663;SDS011;58749;48.022;10.922;2022-08-23T09:52:19;5.53;;;1.90;;
6663;SDS011;58749;48.022;10.922;2022-08-23T09:54:54;3.22;;;1.67;;
6663;SDS011;58749;48.022;10.922;2022-08-23T09:57:26;4.13;;;1.52;;
6663;SDS011;58749;48.022;10.922;2022-08-23T10:00:00;5.50;;;2.30;;
6663;SDS011;58749;48.022;10.922;2022-08-23T10:02:43;7.18;;;1.67;;
6663;SDS011;58749;48.022;10.922;2022-08-23T10:05:16;4.90;;;2.28;;
6663;SDS011;58749;48.022;10.922;2022-08-23T10:07:52;2.05;;;1.25;;
6663;SDS011;58749;48.022;10.922;2022-08-23T10:10:24;3.47;;;1.42;;
6663;SDS011;58749;48.022;10.922;2022-08-23T10:12:58;2.72;;;1.40;;
6663;SDS011;58749;48.022;10.922;2022-08-23T10:15:33;2.58;;;1.25;;
6663;SDS011;58749;48.022;10.922;2022-08-23T10:18:10;4.97;;;2.17;;
6663;SDS011;58749;48.022;10.922;2022-08-23T10:20:46;2.42;;;1.45;;
6663;SDS011;58749;48.022;10.922;2022-08-23T10:23:22;4.50;;;1.50;;
6663;SDS011;58749;48.022;10.922;2022-08-23T10:28:36;2.67;;;1.25;;
6663;SDS011;58749;48.022;10.922;2022-08-23T10:31:33;4.55;;;1.40;;
6663;SDS011;58749;48.022;10.922;2022-08-23T10:34:13;5.00;;;1.40;;
6663;SDS011;58749;48.022;10.922;2022-08-23T10:37:01;6.18;;;1.10;;
6663;SDS011;58749;48.022;10.922;2022-08-23T10:39:51;4.10;;;1.55;;
6663;SDS011;58749;48.022;10.922;2022-08-23T10:42:36;4.97;;;1.50;;
6663;SDS011;58749;48.022;10.922;2022-08-23T10:45:24;4.97;;;1.80;;
6663;SDS011;58749;48.022;10.922;2022-08-23T10:48:06;8.55;;;1.90;;
6663;SDS011;58749;48.022;10.922;2022-08-23T10:50:59;1.80;;;1.23;;
6663;SDS011;58749;48.022;10.922;2022-08-23T10:53:35;4.53;;;1.10;;
6663;SDS011;58749;48.022;10.922;2022-08-23T10:56:18;3.17;;;1.40;;
6663;SDS011;58749;48.022;10.922;2022-08-23T10:58:48;2.83;;;1.17;;
6663;SDS011;58749;48.022;10.922;2022-08-23T11:01:43;2.47;;;1.27;;
6663;SDS011;58749;48.022;10.922;2022-08-23T11:04:27;5.00;;;1.63;;
6663;SDS011;58749;48.022;10.922;2022-08-23T11:07:09;3.88;;;1.88;;
6663;SDS011;58749;48.022;10.922;2022-08-23T11:09:53;4.82;;;1.40;;
6663;SDS011;58749;48.022;10.922;2022-08-23T11:12:28;5.47;;;1.70;;
6663;SDS011;58749;48.022;10.922;2022-08-23T11:15:08;1.73;;;1.00;;
6663;SDS011;58749;48.022;10.922;2022-08-23T11:18:02;11.45;;;1.25;;
6663;SDS011;58749;48.022;10.922;2022-08-23T11:23:44;3.70;;;1.65;;
6663;SDS011;58749;48.022;10.922;2022-08-23T11:29:33;2.63;;;1.48;;
6663;SDS011;58749;48.022;10.922;2022-08-23T11:32:20;3.83;;;1.60;;
6663;SDS011;58749;48.022;10.922;2022-08-23T11:35:01;3.78;;;1.60;;
6663;SDS011;58749;48.022;10.922;2022-08-23T11:40:41;2.67;;;1.85;;
6663;SDS011;58749;48.022;10.922;2022-08-23T11:43:31;4.78;;;1.73;;
6663;SDS011;58749;48.022;10.922;2022-08-23T11:51:20;5.25;;;1.58;;
6663;SDS011;58749;48.022;10.922;2022-08-23T11:53:39;2.38;;;1.20;;
6663;SDS011;58749;48.022;10.922;2022-08-23T11:56:31;2.95;;;1.33;;
6663;SDS011;58749;48.022;10.922;2022-08-23T11:59:24;5.00;;;1.27;;
6663;SDS011;58749;48.022;10.922;2022-08-23T12:02:27;4.25;;;1.65;;
6663;SDS011;58749;48.022;10.922;2022-08-23T12:07:42;3.53;;;1.52;;
6663;SDS011;58749;48.022;10.922;2022-08-23T12:10:14;2.55;;;1.30;;
6663;SDS011;58749;48.022;10.922;2022-08-23T12:12:45;4.15;;;1.20;;
6663;SDS011;58749;48.022;10.922;2022-08-23T12:16:08;3.43;;;1.43;;
6663;SDS011;58749;48.022;10.922;2022-08-23T12:18:55;4.35;;;1.50;;
6663;SDS011;58749;48.022;10.922;2022-08-23T12:24:02;2.30;;;1.27;;
6663;SDS011;58749;48.022;10.922;2022-08-23T12:26:44;6.43;;;1.43;;
6663;SDS011;58749;48.022;10.922;2022-08-23T12:29:22;2.70;;;1.20;;
6663;SDS011;58749;48.022;10.922;2022-08-23T12:32:00;2.90;;;1.52;;
6663;SDS011;58749;48.022;10.922;2022-08-23T12:34:37;4.78;;;1.40;;
6663;SDS011;58749;48.022;10.922;2022-08-23T12:37:15;3.25;;;1.20;;
6663;SDS011;58749;48.022;10.922;2022-08-23T12:39:55;5.80;;;1.67;;
6663;SDS011;58749;48.022;10.922;2022-08-23T12:42:28;2.45;;;1.80;;
6663;SDS011;58749;48.022;10.922;2022-08-23T12:45:00;2.58;;;1.48;;
6663;SDS011;58749;48.022;10.922;2022-08-23T12:47:32;4.03;;;1.25;;
6663;SDS011;58749;48.022;10.922;2022-08-23T12:50:25;4.13;;;1.35;;
6663;SDS011;58749;48.022;10.922;2022-08-23T12:52:59;4.00;;;1.75;;
6663;SDS011;58749;48.022;10.922;2022-08-23T12:55:30;4.38;;;1.30;;
6663;SDS011;58749;48.022;10.922;2022-08-23T12:58:00;5.07;;;1.63;;
6663;SDS011;58749;48.022;10.922;2022-08-23T13:00:33;2.22;;;1.33;;
6663;SDS011;58749;48.022;10.922;2022-08-23T13:03:12;6.95;;;1.60;;
6663;SDS011;58749;48.022;10.922;2022-08-23T13:05:44;3.22;;;1.45;;
6663;SDS011;58749;48.022;10.922;2022-08-23T13:08:18;2.22;;;1.20;;
6663;SDS011;58749;48.022;10.922;2022-08-23T13:11:00;1.48;;;1.38;;
6663;SDS011;58749;48.022;10.922;2022-08-23T13:13:33;4.28;;;1.90;;
6663;SDS011;58749;48.022;10.922;2022-08-23T13:16:22;3.25;;;1.27;;
6663;SDS011;58749;48.022;10.922;2022-08-23T13:18:53;2.38;;;1.52;;
6663;SDS011;58749;48.022;10.922;2022-08-23T13:21:26;2.47;;;1.45;;
6663;SDS011;58749;48.022;10.922;2022-08-23T13:27:15;5.82;;;2.00;;
6663;SDS011;58749;48.022;10.922;2022-08-23T13:29:50;4.65;;;1.70;;
6663;SDS011;58749;48.022;10.922;2022-08-23T13:32:26;3.50;;;1.65;;
6663;SDS011;58749;48.022;10.922;2022-08-23T13:38:00;2.60;;;1.40;;
6663;SDS011;58749;48.022;10.922;2022-08-23T13:40:44;2.50;;;1.15;;
6663;SDS011;58749;48.022;10.922;2022-08-23T13:43:20;3.10;;;1.40;;
6663;SDS011;58749;48.022;10.922;2022-08-23T13:45:51;2.20;;;1.30;;
6663;SDS011;58749;48.022;10.922;2022-08-23T13:48:23;3.78;;;1.27;;
6663;SDS011;58749;48.022;10.922;2022-08-23T13:50:53;2.13;;;1.38;;
6663;SDS011;58749;48.022;10.922;2022-08-23T13:53:43;3.88;;;1.90;;
6663;SDS011;58749;48.022;10.922;2022-08-23T13:56:11;3.30;;;1.67;;
6663;SDS011;58749;48.022;10.922;2022-08-23T13:58:40;4.85;;;1.50;;
6663;SDS011;58749;48.022;10.922;2022-08-23T14:01:17;3.17;;;1.48;;
6663;SDS011;58749;48.022;10.922;2022-08-23T14:03:46;2.13;;;1.30;;
6663;SDS011;58749;48.022;10.922;2022-08-23T14:06:14;3.13;;;1.30;;
6663;SDS011;58749;48.022;10.922;2022-08-23T14:08:51;2.65;;;1.20;;
6663;SDS011;58749;48.022;10.922;2022-08-23T14:11:20;3.90;;;1.50;;
6663;SDS011;58749;48.022;10.922;2022-08-23T14:13:48;2.83;;;1.40;;
6663;SDS011;58749;48.022;10.922;2022-08-23T14:16:20;3.85;;;1.60;;
6663;SDS011;58749;48.022;10.922;2022-08-23T14:19:00;2.35;;;1.23;;
6663;SDS011;58749;48.022;10.922;2022-08-23T14:21:48;4.07;;;1.60;;
6663;SDS011;58749;48.022;10.922;2022-08-23T14:24:20;2.15;;;1.27;;
6663;SDS011;58749;48.022;10.922;2022-08-23T14:26:48;5.95;;;1.58;;
6663;SDS011;58749;48.022;10.922;2022-08-23T14:29:18;2.53;;;1.30;;
6663;SDS011;58749;48.022;10.922;2022-08-23T14:31:48;3.08;;;1.73;;
6663;SDS011;58749;48.022;10.922;2022-08-23T14:34:17;6.32;;;1.58;;
6663;SDS011;58749;48.022;10.922;2022-08-23T14:36:45;4.85;;;1.58;;
6663;SDS011;58749;48.022;10.922;2022-08-23T14:39:35;3.63;;;2.15;;
6663;SDS011;58749;48.022;10.922;2022-08-23T14:42:04;6.63;;;1.80;;
6663;SDS011;58749;48.022;10.922;2022-08-23T14:44:32;3.78;;;1.55;;
6663;SDS011;58749;48.022;10.922;2022-08-23T14:47:02;1.95;;;1.50;;
6663;SDS011;58749;48.022;10.922;2022-08-23T14:49:31;2.92;;;1.77;;
6663;SDS011;58749;48.022;10.922;2022-08-23T14:51:59;3.72;;;1.75;;
6663;SDS011;58749;48.022;10.922;2022-08-23T14:54:27;3.78;;;1.40;;
6663;SDS011;58749;48.022;10.922;2022-08-23T14:56:57;4.03;;;1.70;;
6663;SDS011;58749;48.022;10.922;2022-08-23T14:59:25;2.20;;;1.40;;
6663;SDS011;58749;48.022;10.922;2022-08-23T15:01:53;4.80;;;1.80;;
6663;SDS011;58749;48.022;10.922;2022-08-23T15:04:23;4.63;;;1.63;;
6663;SDS011;58749;48.022;10.922;2022-08-23T15:06:59;5.45;;;1.98;;
6663;SDS011;58749;48.022;10.922;2022-08-23T15:09:45;1.88;;;1.50;;
6663;SDS011;58749;48.022;10.922;2022-08-23T15:12:16;5.50;;;1.73;;
6663;SDS011;58749;48.022;10.922;2022-08-23T15:15:06;9.77;;;1.92;;
6663;SDS011;58749;48.022;10.922;2022-08-23T15:17:42;6.22;;;1.70;;
6663;SDS011;58749;48.022;10.922;2022-08-23T15:20:13;5.18;;;1.92;;
6663;SDS011;58749;48.022;10.922;2022-08-23T15:22:41;6.53;;;1.75;;
6663;SDS011;58749;48.022;10.922;2022-08-23T15:25:21;3.42;;;1.67;;
6663;SDS011;58749;48.022;10.922;2022-08-23T15:27:51;2.10;;;1.40;;
6663;SDS011;58749;48.022;10.922;2022-08-23T15:30:20;1.90;;;1.50;;
6663;SDS011;58749;48.022;10.922;2022-08-23T15:32:49;2.35;;;1.52;;
6663;SDS011;58749;48.022;10.922;2022-08-23T15:35:22;5.20;;;1.52;;
6663;SDS011;58749;48.022;10.922;2022-08-23T15:37:52;4.97;;;1.98;;
6663;SDS011;58749;48.022;10.922;2022-08-23T15:40:22;6.85;;;1.30;;
6663;SDS011;58749;48.022;10.922;2022-08-23T15:42:52;2.92;;;1.70;;
6663;SDS011;58749;48.022;10.922;2022-08-23T15:45:21;7.03;;;2.30;;
6663;SDS011;58749;48.022;10.922;2022-08-23T15:47:49;8.20;;;1.60;;
6663;SDS011;58749;48.022;10.922;2022-08-23T15:50:21;2.42;;;1.70;;
6663;SDS011;58749;48.022;10.922;2022-08-23T15:52:52;3.88;;;1.42;;